Weather at Kedong Airport

Public forecast

Using degrees Celsius for public forecast. Weather courtesy of forecast.io.

Closest aviation weather report (METAR) to Kedong Airport

Closest report is Nairobi Wilson Airport, 20.4 nm (37.9 km) E.

2022/12/04 11:00 (retrieved 1 hour ago)

HKNW 041100Z 07015KT 9999 BKN024 22/15 Q1019

Closest aviation forecast (TAF) to Kedong Airport

Closest forecast is Nairobi Wilson Airport, 20.4 nm (37.9 km) E.

2022/12/04 12:09 (retrieved 0 seconds ago)

TAF HKNW 041100Z 0412/0512 07015KT 9999 BKN026 PROB30 TEMPO 0413/0417 -SHRA FEW022CB SCT023 BKN080 BECMG 0420/0423 04005KT BKN020 BECMG 0508/0511 BKN024